CWHN

Jimmy Lake Airport

Jimmy Lake, Canada
METAR CWHN 250000Z AUTO 28014G22KT 240V310 9SM FEW099 18/M08 A2992 RMK SLP149
Observed Flight Rules
Apr-25 @ 00:00 UTC (33 minutes ago) Visual Flight Rules
Wind Visibility Clouds
280° at 14 knots
 Gusting to 22 knots
9 miles
  • Few at 9,900' AGL
Temperatures Readings
Current 18°C / 64°F
Dewpoint -8°C / 18°F
Humidity 16%
Altimeter 29.92" Hg
Pressure 1014.9 hPa
Elevation 636
METAR CWHN 250000Z AUTO 28014G22KT 240V310 9SM FEW099 18/M08 A2992 RMK SLP149
Observed Flight Rules
Apr-25 @ 00:00 UTC
(33 minutes ago)
VFR
Wind Visibility
280° at 14 knots
 Gusting to 22 knots
9 miles
Clouds
  • Few at 9,900' AGL
Temperature Dewpoint
18°C / 64°F -8°C / 18°F
Humidity Altimeter Pressure
16% 29.92" Hg 1014.9 hPa